Terminal Aerodrome Forecast
Issued by NWS

Home | Current Version | Previous Version | Text Only | Print | Product List | Glossary Off
Versions: 1 2 3 4 5 6 7 8 9 10 11 12 13 14 15 16 17 18 19 20

000
FTUS43 KMPX 161700 RRA
TAFAXN
TAF
KAXN 161744Z 1618/1718 07020G27KT 1SM -SN BR OVC008
      TEMPO 1618/1620 1/4SM SN FZFG VV005
     FM162000 06018G23KT 3/4SM -SN BR VV005
     FM162200 03018G24KT 3SM -SN OVC010
     FM170200 01015G21KT 4SM BR OVC020
     FM170600 35010KT P6SM BKN020=

USA.gov is the U.S. government's official web portal to all federal, state and local government web resources and services.